Terminal Aerodrome Forecast
Issued by NWS

Home | Current Version | Previous Version | Text Only | Print | Product List | Glossary On
Versions: 1 2 3 4 5 6 7 8 9 10 11 12 13 14 15 16 17 18 19 20
000
FTUS41 KPHI 172300
TAFPNE
TAF
KPNE 172336Z 1800/1824 11010G16KT P6SM SCT040
     FM180200 09008KT P6SM BKN050
     FM180800 03006KT P6SM BKN020
     FM181400 09007KT P6SM SCT030 BKN250
     FM181800 19006KT P6SM OVC250=

USA.gov is the U.S. government's official web portal to all federal, state and local government web resources and services.